PILOTS ONLINE: 571    ATC ONLINE: 99

CYVR - Vancouver International Airport

Location

IATA YVR
City Vancouver
Country  Canada
Latitude 49° 11' 38" N
Longitude 123° 11' 2" W
Elevation 14 ft
Type Large Airport

Runways

08L/26R 9940 ft / 200 ft
08R/26L 11500 ft / 200 ft
12/30 7300 ft / 200 ft
XX/26A 3500 ft / 75 ft

Weather

METAR
2014/07/22 17:00
CYVR 221700Z 17008KT 30SM BKN058 BKN110 19/12 A3004 RMK SC5AC1 TR CU / HZ SLP171 DENSITY ALT 300FT
TAF
2014/07/22 15:42
TAF CYVR 221438Z 2215/2318 12008KT P6SM SCT050 SCT150 
      TEMPO 2219/2303 BKN040 
      BECMG 2219/2221 16010KT 
     FM230300 16006KT P6SM BKN030 
      TEMPO 2303/2310 SCT030 
      BECMG 2304/2306 10006KT 
     FM231000 09006KT P6SM SCT008 OVC040 
      TEMPO 2310/2317 5SM -SHRA BR BKN008 
      BECMG 2313/2315 27012KT 
     FM231700 12010KT P6SM SCT008 BKN040 
      TEMPO 2317/2318 5SM -SHRA BR BKN006 
      RMK NXT FCST BY 221800Z

Outbound flights

KLM682  EHAM - Amsterdam, Netherlands
Alex Brown
ACA1136  CYYZ - Toronto, Canada
Ross Piscoran
ACA102  CYYZ - Toronto, Canada
Anonymous

Inbound flights

ACA5  CYYZ - Toronto, Canada
Christopher Ferguson
ACA034  CYYZ - Toronto, Canada
Simon Larsson